Latest Weather Observations for Wangaratta

IDV60801

Issued at 5:02 pm EST Monday 6 July 2015 (issued every 30 minutes, with the page automatically refreshed every 10 minutes)

About weather observations | Map of weather stations | Latest weather observations for VIC | Other Formats
Station Details ID: 082138 Name: WANGARATTA AERO Lat: -36.42 Lon: 146.31 Height: 152.6 m
Data from the previous 72 hours. | See also: Recent months at Wangaratta
Date/Time
EST
Temp
°C
App
Temp
°C
Dew
Point
Rel
Hum
%
Delta-T
°C
Wind Press
QNH
hPa
Press
MSL
hPa
Rain
since 9 am
mm
Dir
 
Spd
km/h
Gust
km/h
Spd
kts
Gust
kts
06/05:00pm 8.0 5.6 5.3 83 1.2 E 7 9 4 5 1017.6 1018.0 0.0
06/04:30pm 8.4 7.3 5.2 80 1.4 CALM 0 0 0 0 1017.5 1017.9 0.0
06/04:00pm 8.5 6.1 5.3 80 1.4 E 7 9 4 5 1017.4 1017.8 0.0
06/03:30pm 8.8 6.3 5.0 77 1.7 ENE 7 9 4 5 1017.5 1017.9 0.0
06/03:00pm 8.9 6.5 4.3 73 2.0 NNE 6 9 3 5 1017.3 1017.7 0.0
06/02:30pm 8.9 6.3 4.1 72 2.1 N 7 9 4 5 1017.5 1017.9 0.0
06/02:00pm 9.1 6.7 4.3 72 2.1 NW 6 9 3 5 1017.5 1017.9 0.0
06/01:30pm 9.1 6.7 4.5 73 2.1 NNW 6 9 3 5 1017.6 1018.0 0.0
06/01:00pm 9.0 7.8 4.8 75 1.9 CALM 0 0 0 0 1017.8 1018.2 0.0
06/12:30pm 8.7 7.6 4.9 77 1.7 CALM 0 0 0 0 1017.9 1018.3 0.0
06/12:00pm 8.4 7.3 5.3 81 1.4 CALM 0 0 0 0 1018.2 1018.6 0.0
06/11:30am 8.4 7.3 5.3 81 1.4 CALM 0 0 0 0 1018.7 1019.0 0.0
06/11:00am 8.0 7.0 5.6 85 1.1 CALM 0 0 0 0 1018.9 1019.2 0.0
06/10:30am 7.7 6.7 5.5 86 1.0 CALM 0 0 0 0 1019.0 1019.3 0.0
06/10:00am 7.5 5.7 5.6 88 0.9 ESE 4 6 2 3 1018.9 1019.2 0.0
06/09:30am 7.0 5.0 6.1 94 0.4 SSE 6 6 3 3 1019.1 1019.4 0.0
06/09:00am 6.6 4.7 6.5 99 0.0 SW 6 7 3 4 1018.9 1019.2 0.0
06/08:30am 5.9 4.9 5.8 99 0.0 CALM 0 0 0 0 1018.7 1019.0 0.0
06/08:00am 5.6 4.6 5.5 99 0.0 CALM 0 0 0 0 1018.8 1019.1 0.0
06/07:30am 5.6 4.6 5.5 99 0.0 CALM 0 0 0 0 1018.7 1019.0 0.0
06/07:00am 5.9 4.9 5.6 98 0.1 CALM 0 0 0 0 1018.6 1018.9 0.0
06/06:30am 6.1 5.1 5.8 98 0.1 CALM 0 0 0 0 1018.6 1018.9 0.0
06/06:00am 5.9 4.9 5.8 99 0.0 CALM 0 0 0 0 1018.6 1018.9 0.0
06/05:30am 5.8 4.8 5.5 98 0.1 CALM 0 0 0 0 1018.5 1018.8 0.0
06/05:00am 5.9 4.9 5.5 97 0.2 CALM 0 0 0 0 1018.3 1018.7 0.0
06/04:30am 6.3 5.3 5.7 96 0.3 CALM 0 0 0 0 1018.6 1018.9 0.0
06/04:00am 6.4 5.0 5.5 94 0.4 SSE 2 9 1 5 1018.6 1018.9 0.0
06/03:30am 6.6 5.6 5.6 93 0.4 CALM 0 4 0 2 1018.9 1019.2 0.0
06/03:00am 6.7 5.3 5.3 91 0.6 ESE 2 6 1 3 1019.1 1019.4 0.0
06/02:30am 6.8 5.8 5.4 91 0.6 CALM 0 6 0 3 1019.3 1019.6 0.0
06/02:00am 6.8 5.7 5.3 90 0.7 CALM 0 7 0 4 1019.5 1019.8 0.0
06/01:30am 7.1 4.9 5.1 87 0.9 SSE 6 7 3 4 1019.5 1019.8 0.0
06/01:00am 6.7 3.1 5.0 89 0.7 WNW 13 15 7 8 1019.8 1020.1 0.0
06/12:30am 6.7 3.5 4.9 88 0.8 NW 11 13 6 7 1020.0 1020.3 0.0
06/12:00am 7.1 4.2 4.8 85 1.0 NNW 9 11 5 6 1020.1 1020.4 0.0
 
Date/Time
EST
Temp
°C
App
Temp
°C
Dew
Point
Rel
Hum
%
Delta-T
°C
Wind Press
QNH
hPa
Press
MSL
hPa
Rain
since 9 am
mm
Dir
 
Spd
km/h
Gust
km/h
Spd
kts
Gust
kts
05/11:30pm 7.5 5.0 5.0 84 1.1 N 7 11 4 6 1020.2 1020.5 0.0
05/11:00pm 7.6 5.2 5.4 86 1.0 N 7 9 4 5 1020.3 1020.6 0.0
05/10:30pm 7.1 5.0 5.6 90 0.7 N 6 7 3 4 1020.4 1020.7 0.0
05/10:00pm 7.1 6.0 5.3 88 0.8 CALM 0 0 0 0 1020.5 1020.8 0.0
05/09:30pm 7.5 6.4 5.1 85 1.1 CALM 0 0 0 0 1020.5 1020.8 0.0
05/09:00pm 7.3 4.5 5.3 87 0.9 WNW 9 9 5 5 1020.5 1020.8 0.0
05/08:30pm 7.8 6.7 5.1 83 1.2 CALM 0 0 0 0 1020.5 1020.8 0.0
05/08:00pm 7.8 6.7 5.1 83 1.2 CALM 0 0 0 0 1020.5 1020.8 0.0
05/07:30pm 8.2 7.2 5.8 85 1.1 CALM 0 0 0 0 1020.5 1020.8 0.0
05/07:00pm 8.0 7.0 5.8 86 1.0 CALM 0 4 0 2 1020.6 1020.9 0.0
05/06:30pm 8.2 7.2 5.7 84 1.1 CALM 0 0 0 0 1020.7 1021.0 0.0
05/06:00pm 8.6 7.5 5.2 79 1.5 CALM 0 0 0 0 1020.6 1020.9 0.0
05/05:30pm 8.9 6.6 4.9 76 1.8 N 6 6 3 3 1020.4 1020.7 0.0
05/05:00pm 9.8 8.5 4.0 67 2.6 CALM 0 0 0 0 1020.4 1020.7 0.0
05/04:30pm 10.1 8.0 4.0 66 2.7 NE 4 6 2 3 1020.3 1020.6 0.0
05/04:00pm 10.0 7.5 3.7 65 2.8 ENE 6 6 3 3 1020.4 1020.7 0.0
05/03:30pm 10.4 9.0 3.4 62 3.1 CALM 0 0 0 0 1020.3 1020.6 0.0
05/03:00pm 10.4 8.2 3.2 61 3.1 ENE 4 7 2 4 1020.4 1020.7 0.0
05/02:30pm 10.1 8.7 3.6 64 2.9 CALM 0 0 0 0 1020.6 1020.9 0.0
05/02:00pm 10.0 7.5 4.0 66 2.7 SSE 6 7 3 4 1020.7 1021.0 0.0
05/01:30pm 9.9 7.7 3.6 65 2.8 ESE 4 9 2 5 1021.1 1021.4 0.0
05/01:00pm 10.6 8.4 3.6 62 3.1 NE 4 9 2 5 1021.3 1021.6 0.0
05/12:30pm 10.0 8.2 3.3 63 2.9 E 2 7 1 4 1021.8 1022.2 0.0
05/12:00pm 9.2 6.7 3.8 69 2.4 ESE 6 9 3 5 1022.1 1022.5 0.0
05/11:30am 8.8 7.6 4.6 75 1.9 CALM 0 0 0 0 1022.9 1023.3 0.0
05/11:00am 8.0 6.9 5.1 82 1.3 CALM 0 0 0 0 1023.3 1023.7 0.0
05/10:30am 6.9 5.9 5.7 92 0.5 CALM 0 0 0 0 1023.5 1023.9 0.0
05/10:00am 5.2 4.1 5.1 99 0.0 CALM 0 4 0 2 1023.8 1024.2 0.0
05/09:38am 4.0 2.3 3.9 99 0.0 SW 2 6 1 3 1023.9 1024.3 0.0
05/09:30am 3.6 1.4 3.5 99 0.0 S 4 7 2 4 1023.9 1024.3 0.0
05/09:26am 3.4 0.8 3.3 99 0.0 SSE 6 7 3 4 1023.9 1024.3 0.0
05/09:05am 2.6 1.0 2.5 99 0.0 CALM 0 0 0 0 1023.5 1023.9 0.0
05/09:02am 2.4 0.8 2.3 99 0.0 CALM 0 0 0 0 1023.5 1023.9 0.0
05/09:00am 2.2 0.5 2.1 99 0.0 CALM 0 0 0 0 1023.5 1023.9 0.0
05/08:47am 1.9 0.2 1.8 99 0.0 CALM 0 0 0 0 1023.5 1023.9 0.0
05/08:30am 1.2 -0.6 1.1 99 0.0 CALM 0 0 0 0 1023.3 1023.7 0.0
05/08:00am 0.1 -2.3 0.0 99 0.0 NW 2 7 1 4 1023.2 1023.6 0.0
05/07:30am -0.3 -2.3 -0.4 99 0.0 CALM 0 0 0 0 1023.2 1023.6 0.0
05/07:09am -0.5 -2.6 -0.6 99 0.0 CALM 0 0 0 0 1023.2 1023.6 0.0
05/07:03am -0.5 -2.6 -0.6 99 0.0 CALM 0 0 0 0 1023.3 1023.7 0.0
05/07:00am -0.4 -2.5 -0.5 99 0.0 CALM 0 0 0 0 1023.3 1023.7 0.0
05/06:42am -0.6 -3.8 -0.7 99 0.0 SE 6 7 3 4 1023.2 1023.6 0.0
05/06:41am -0.5 -3.7 -0.6 99 0.0 SE 6 7 3 4 1023.2 1023.6 0.0
05/06:36am -0.4 -3.6 -0.5 99 0.0 SSE 6 7 3 4 1023.2 1023.6 0.0
05/06:34am -0.4 -3.6 -0.5 99 0.0 SSE 6 7 3 4 1023.2 1023.6 0.0
05/06:30am -0.3 -3.1 -0.4 99 0.0 SSE 4 7 2 4 1023.1 1023.5 0.0
05/06:20am 0.0 -2.4 -0.1 99 0.0 SSE 2 6 1 3 1023.1 1023.5 0.0
05/06:00am 0.1 -1.9 0.0 99 0.0 CALM 0 0 0 0 1023.0 1023.4 0.0
05/05:47am 0.0 -2.4 -0.1 99 0.0 N 2 6 1 3 1022.8 1023.2 0.0
05/05:30am 0.3 -1.7 0.2 99 0.0 CALM 0 0 0 0 1022.7 1023.1 0.0
05/05:27am 0.5 -1.4 0.4 99 0.0 CALM 0 0 0 0 1022.7 1023.1 0.0
05/05:12am 0.4 -1.5 0.3 99 0.0 CALM 0 0 0 0 1022.8 1023.2 0.0
05/05:00am 0.6 -1.3 0.5 99 0.0 CALM 0 0 0 0 1022.9 1023.3 0.0
05/04:30am 0.8 -1.1 0.7 99 0.0 CALM 0 0 0 0 1022.8 1023.2 0.0
05/04:13am 1.0 -0.8 0.9 99 0.0 CALM 0 0 0 0 1022.9 1023.3 0.0
05/04:00am 1.2 -0.6 1.1 99 0.0 CALM 0 0 0 0 1022.8 1023.2 0.0
05/03:30am 1.7 0.0 1.6 99 0.0 CALM 0 0 0 0 1022.9 1023.3 0.0
05/03:00am 1.2 -1.4 1.1 99 0.0 SW 4 6 2 3 1023.0 1023.4 0.0
05/02:43am 1.9 -0.6 1.8 99 0.0 SSW 4 6 2 3 1023.1 1023.5 0.0
05/02:30am 2.0 -0.8 1.9 99 0.0 S 6 6 3 3 1023.1 1023.5 0.0
05/02:19am 1.7 -0.8 1.6 99 0.0 SSE 4 6 2 3 1023.1 1023.5 0.0
05/02:02am 2.6 -0.1 2.5 99 0.0 SSW 6 7 3 4 1023.1 1023.5 0.0
05/02:00am 2.7 0.0 2.6 99 0.0 SSW 6 7 3 4 1023.1 1023.5 0.0
05/01:52am 2.7 0.0 2.6 99 0.0 SW 6 7 3 4 1023.2 1023.6 0.0
05/01:30am 3.0 1.4 2.7 98 0.1 CALM 0 7 0 4 1023.2 1023.6 0.0
05/01:29am 3.0 1.4 2.7 98 0.1 CALM 0 0 0 0 1023.2 1023.6 0.0
05/01:00am 3.6 2.1 3.2 97 0.2 CALM 0 0 0 0 1023.2 1023.6 0.0
05/12:51am 4.1 2.7 3.7 97 0.2 CALM 0 0 0 0 1023.3 1023.7 0.0
05/12:30am 5.0 3.8 4.6 97 0.2 CALM 0 0 0 0 1023.4 1023.8 0.0
05/12:00am 5.3 4.1 4.6 95 0.3 CALM 0 0 0 0 1023.7 1024.1 0.0
 
Date/Time
EST
Temp
°C
App
Temp
°C
Dew
Point
Rel
Hum
%
Delta-T
°C
Wind Press
QNH
hPa
Press
MSL
hPa
Rain
since 9 am
mm
Dir
 
Spd
km/h
Gust
km/h
Spd
kts
Gust
kts
04/11:30pm 6.1 5.0 5.2 94 0.4 CALM 0 0 0 0 1023.9 1024.3 0.0
04/11:00pm 6.8 5.7 5.3 90 0.7 CALM 0 0 0 0 1023.8 1024.2 0.0
04/10:30pm 7.1 6.1 5.4 89 0.8 CALM 0 0 0 0 1023.7 1024.1 0.0
04/10:00pm 7.3 6.3 5.8 90 0.7 CALM 0 0 0 0 1024.0 1024.4 0.0
04/09:30pm 7.3 6.3 5.8 90 0.7 CALM 0 0 0 0 1024.1 1024.5 0.0
04/09:00pm 7.3 5.6 5.8 90 0.7 SSW 4 6 2 3 1024.1 1024.5 0.0
04/08:30pm 7.5 6.5 5.6 88 0.9 CALM 0 0 0 0 1024.1 1024.5 0.0
04/08:00pm 7.5 6.5 5.5 87 0.9 CALM 0 0 0 0 1024.2 1024.6 0.0
04/07:30pm 7.6 6.5 5.2 85 1.1 CALM 0 0 0 0 1024.0 1024.4 0.0
04/07:00pm 7.8 6.7 4.9 82 1.3 CALM 0 6 0 3 1023.8 1024.2 0.0
04/06:30pm 8.0 5.5 3.8 75 1.8 ESE 6 7 3 4 1023.6 1024.0 0.0
04/06:00pm 7.9 5.2 3.9 76 1.7 E 7 9 4 5 1023.6 1024.0 0.0
04/05:30pm 8.5 5.9 4.3 75 1.9 E 7 9 4 5 1023.4 1023.8 0.0
04/05:00pm 9.0 6.3 3.8 70 2.3 ESE 7 9 4 5 1023.6 1024.0 0.0
04/04:30pm 9.6 6.9 2.5 61 3.0 W 6 6 3 3 1023.6 1024.0 0.0
04/04:00pm 9.8 6.8 2.2 59 3.2 W 7 9 4 5 1023.7 1024.1 0.0
04/03:30pm 10.0 7.8 3.3 63 2.9 SW 4 11 2 6 1023.6 1024.0 0.0
04/03:00pm 10.1 8.5 2.5 59 3.3 CALM 0 0 0 0 1023.4 1023.8 0.0
04/02:30pm 9.8 6.8 2.2 59 3.2 SW 7 11 4 6 1023.4 1023.8 0.0
04/02:00pm 9.8 7.0 1.9 58 3.3 S 6 9 3 5 1023.6 1024.0 0.0
04/01:30pm 9.5 6.8 2.6 62 3.0 NNE 6 7 3 4 1023.9 1024.3 0.0
04/01:00pm 9.4 7.1 2.7 63 2.9 W 4 7 2 4 1024.2 1024.6 0.0
04/12:30pm 9.2 6.0 2.8 64 2.7 NNE 9 13 5 7 1024.4 1024.8 0.0
04/12:00pm 9.4 7.1 2.9 64 2.8 N 4 7 2 4 1024.8 1025.2 0.0
04/11:30am 8.0 5.7 2.7 69 2.2 ESE 4 6 2 3 1025.2 1025.6 0.0
04/11:00am 7.1 4.4 3.7 79 1.5 N 7 9 4 5 1025.7 1026.0 0.0
04/10:30am 5.6 4.1 2.8 82 1.2 CALM 0 0 0 0 1026.3 1026.6 0.0
04/10:00am 5.0 3.0 2.5 84 1.0 N 2 6 1 3 1026.3 1026.6 0.0
04/09:30am 4.4 2.8 2.6 88 0.7 CALM 0 0 0 0 1026.0 1026.3 0.0
04/09:00am 3.4 1.7 2.1 91 0.5 CALM 0 0 0 0 1025.7 1026.0 -
04/08:30am 3.2 1.6 2.2 93 0.4 CALM 0 0 0 0 1025.4 1025.7 -
04/08:00am 3.0 1.4 2.4 96 0.2 CALM 0 0 0 0 1025.9 1026.2 -
04/07:30am 2.8 1.2 2.4 97 0.2 CALM 0 6 0 3 1025.6 1025.9 -
04/07:00am 2.7 1.1 2.4 98 0.1 CALM 0 0 0 0 1025.1 1025.5 -
04/06:30am 2.3 0.6 2.0 98 0.1 CALM 0 0 0 0 1024.9 1025.3 -
04/06:00am 2.3 -0.5 1.9 97 0.2 NNE 6 7 3 4 1024.6 1025.0 -
04/05:30am 2.1 0.4 1.7 97 0.2 CALM 0 0 0 0 1024.5 1024.9 -
04/05:00am 2.1 0.4 1.7 97 0.2 CALM 0 0 0 0 1024.7 1025.1 -
04/04:30am 2.0 0.2 1.4 96 0.2 CALM 0 0 0 0 1024.5 1024.9 -
04/04:00am 2.5 -0.3 1.9 96 0.2 SW 6 9 3 5 1024.7 1025.1 -
04/03:30am 2.8 1.1 1.6 92 0.5 CALM 0 0 0 0 1024.5 1024.9 -
04/03:00am 2.8 0.3 1.8 93 0.4 SSW 4 6 2 3 1024.7 1025.1 0.0
04/02:30am 3.0 0.5 1.5 90 0.6 SE 4 7 2 4 1024.9 1025.3 -
04/02:00am 3.1 0.1 1.9 92 0.5 ESE 7 9 4 5 1025.2 1025.6 -
04/01:30am 3.6 2.0 2.7 94 0.4 CALM 0 0 0 0 1025.7 1026.0 -
04/01:00am 3.4 1.8 2.4 93 0.4 CALM 0 4 0 2 1025.8 1026.1 -
04/12:30am 3.5 1.9 2.2 91 0.5 CALM 0 0 0 0 1025.9 1026.2 -
04/12:00am 3.6 2.0 2.3 91 0.5 CALM 0 0 0 0 1026.1 1026.4 -
 
Date/Time
EST
Temp
°C
App
Temp
°C
Dew
Point
Rel
Hum
%
Delta-T
°C
Wind Press
QNH
hPa
Press
MSL
hPa
Rain
since 9 am
mm
Dir
 
Spd
km/h
Gust
km/h
Spd
kts
Gust
kts
03/11:30pm 3.6 1.2 2.3 91 0.5 SW 4 7 2 4 1026.2 1026.5 -
03/11:00pm 3.4 1.3 1.9 90 0.6 WSW 2 6 1 3 1026.3 1026.6 -
03/10:30pm 3.8 1.3 1.5 85 0.9 S 4 9 2 5 1026.3 1026.6 -
03/10:00pm 4.5 1.2 2.5 87 0.8 SE 9 13 5 7 1026.4 1026.7 -
03/09:30pm 5.4 2.8 3.3 86 0.9 E 6 7 3 4 1026.6 1026.9 -
03/09:00pm 5.8 4.3 3.1 83 1.1 CALM 0 0 0 0 1026.6 1026.9 0.0
03/08:30pm 6.0 4.5 2.8 80 1.3 CALM 0 0 0 0 1026.6 1026.9 -
03/08:00pm 5.9 3.3 3.1 82 1.2 NW 6 7 3 4 1026.6 1026.9 -
03/07:30pm 6.1 4.7 3.6 84 1.1 CALM 0 0 0 0 1026.6 1026.9 -
03/07:00pm 7.1 5.5 2.6 73 1.9 CALM 0 0 0 0 1026.4 1026.7 -
03/06:30pm 7.6 5.3 2.5 70 2.1 NW 4 6 2 3 1026.5 1026.8 -
03/06:00pm 7.9 6.4 3.2 72 2.0 CALM 0 0 0 0 1026.6 1026.9 -
03/05:30pm 8.2 6.6 2.2 66 2.5 CALM 0 0 0 0 1026.4 1026.7 -

Other Formats:

Comma delimited format used in spreadsheet applications
http://www.bom.gov.au/fwo/IDV60801/IDV60801.94889.axf

JavaScript Object Notation format (JSON) in row-major order
http://www.bom.gov.au/fwo/IDV60801/IDV60801.94889.json